sensor_id;sensor_type;location;lat;lon;timestamp;temperature;humidity
71098;SHT35;58754;47.622;-2.986;2023-03-01T00:01:53;12.98;49.18
71098;SHT35;58754;47.622;-2.986;2023-03-01T00:04:19;12.96;49.19
71098;SHT35;58754;47.622;-2.986;2023-03-01T00:06:44;12.95;49.23
71098;SHT35;58754;47.622;-2.986;2023-03-01T00:09:14;12.96;49.18
71098;SHT35;58754;47.622;-2.986;2023-03-01T00:11:40;12.96;49.14
71098;SHT35;58754;47.622;-2.986;2023-03-01T00:14:06;12.95;49.18
71098;SHT35;58754;47.622;-2.986;2023-03-01T00:16:35;12.96;49.16
71098;SHT35;58754;47.622;-2.986;2023-03-01T00:19:02;12.99;49.19
71098;SHT35;58754;47.622;-2.986;2023-03-01T00:21:28;12.95;49.20
71098;SHT35;58754;47.622;-2.986;2023-03-01T00:23:54;12.95;49.15
71098;SHT35;58754;47.622;-2.986;2023-03-01T00:26:22;12.93;49.21
71098;SHT35;58754;47.622;-2.986;2023-03-01T00:28:48;12.95;49.20
71098;SHT35;58754;47.622;-2.986;2023-03-01T00:31:16;12.95;49.15
71098;SHT35;58754;47.622;-2.986;2023-03-01T00:33:43;12.93;49.18
71098;SHT35;58754;47.622;-2.986;2023-03-01T00:36:09;12.93;49.18
71098;SHT35;58754;47.622;-2.986;2023-03-01T00:38:40;12.93;49.19
71098;SHT35;58754;47.622;-2.986;2023-03-01T00:41:07;12.93;49.16
71098;SHT35;58754;47.622;-2.986;2023-03-01T00:43:33;12.95;49.13
71098;SHT35;58754;47.622;-2.986;2023-03-01T00:46:07;12.92;49.15
71098;SHT35;58754;47.622;-2.986;2023-03-01T00:48:33;12.95;49.15
71098;SHT35;58754;47.622;-2.986;2023-03-01T00:53:39;12.95;49.14
71098;SHT35;58754;47.622;-2.986;2023-03-01T00:56:06;12.93;49.19
71098;SHT35;58754;47.622;-2.986;2023-03-01T00:58:33;12.93;49.14
71098;SHT35;58754;47.622;-2.986;2023-03-01T01:00:59;12.93;49.15
71098;SHT35;58754;47.622;-2.986;2023-03-01T01:03:25;12.92;49.09
71098;SHT35;58754;47.622;-2.986;2023-03-01T01:05:52;12.95;49.15
71098;SHT35;58754;47.622;-2.986;2023-03-01T01:08:19;12.95;49.11
71098;SHT35;58754;47.622;-2.986;2023-03-01T01:10:46;12.93;49.07
71098;SHT35;58754;47.622;-2.986;2023-03-01T01:13:12;12.93;49.07
71098;SHT35;58754;47.622;-2.986;2023-03-01T01:15:38;12.92;49.09
71098;SHT35;58754;47.622;-2.986;2023-03-01T01:18:04;12.93;49.07
71098;SHT35;58754;47.622;-2.986;2023-03-01T01:20:30;12.92;49.11
71098;SHT35;58754;47.622;-2.986;2023-03-01T01:22:56;12.93;49.10
71098;SHT35;58754;47.622;-2.986;2023-03-01T01:25:22;12.92;49.09
71098;SHT35;58754;47.622;-2.986;2023-03-01T01:27:50;12.93;49.02
71098;SHT35;58754;47.622;-2.986;2023-03-01T01:30:16;12.93;49.12
71098;SHT35;58754;47.622;-2.986;2023-03-01T01:32:42;12.92;49.06
71098;SHT35;58754;47.622;-2.986;2023-03-01T01:35:08;12.91;49.08
71098;SHT35;58754;47.622;-2.986;2023-03-01T01:37:34;12.89;49.04
71098;SHT35;58754;47.622;-2.986;2023-03-01T01:40:03;12.93;49.05
71098;SHT35;58754;47.622;-2.986;2023-03-01T01:42:31;12.91;49.01
71098;SHT35;58754;47.622;-2.986;2023-03-01T01:45:36;12.89;49.06
71098;SHT35;58754;47.622;-2.986;2023-03-01T01:48:14;12.92;49.05
71098;SHT35;58754;47.622;-2.986;2023-03-01T01:50:42;12.93;49.02
71098;SHT35;58754;47.622;-2.986;2023-03-01T01:53:14;12.91;49.01
71098;SHT35;58754;47.622;-2.986;2023-03-01T01:55:46;12.88;49.00
71098;SHT35;58754;47.622;-2.986;2023-03-01T01:58:15;12.88;49.01
71098;SHT35;58754;47.622;-2.986;2023-03-01T02:00:43;12.89;49.00
71098;SHT35;58754;47.622;-2.986;2023-03-01T02:03:38;12.88;49.00
71098;SHT35;58754;47.622;-2.986;2023-03-01T02:06:38;12.88;49.00
71098;SHT35;58754;47.622;-2.986;2023-03-01T02:09:09;12.88;49.01
71098;SHT35;58754;47.622;-2.986;2023-03-01T02:11:36;12.88;49.02
71098;SHT35;58754;47.622;-2.986;2023-03-01T02:14:03;12.88;48.99
71098;SHT35;58754;47.622;-2.986;2023-03-01T02:16:30;12.87;49.01
71098;SHT35;58754;47.622;-2.986;2023-03-01T02:18:57;12.89;49.02
71098;SHT35;58754;47.622;-2.986;2023-03-01T02:24:17;12.85;48.95
71098;SHT35;58754;47.622;-2.986;2023-03-01T02:26:54;12.88;49.01
71098;SHT35;58754;47.622;-2.986;2023-03-01T02:29:22;12.87;48.95
71098;SHT35;58754;47.622;-2.986;2023-03-01T02:31:48;12.85;48.93
71098;SHT35;58754;47.622;-2.986;2023-03-01T02:34:21;12.87;48.93
71098;SHT35;58754;47.622;-2.986;2023-03-01T02:39:24;12.84;48.99
71098;SHT35;58754;47.622;-2.986;2023-03-01T02:41:53;12.87;48.91
71098;SHT35;58754;47.622;-2.986;2023-03-01T02:44:20;12.85;48.93
71098;SHT35;58754;47.622;-2.986;2023-03-01T02:46:49;12.85;48.95
71098;SHT35;58754;47.622;-2.986;2023-03-01T02:49:26;12.89;48.95
71098;SHT35;58754;47.622;-2.986;2023-03-01T02:54:48;12.84;48.90
71098;SHT35;58754;47.622;-2.986;2023-03-01T02:57:17;12.87;48.93
71098;SHT35;58754;47.622;-2.986;2023-03-01T02:59:43;12.84;48.95
71098;SHT35;58754;47.622;-2.986;2023-03-01T03:05:06;12.82;48.93
71098;SHT35;58754;47.622;-2.986;2023-03-01T03:07:35;12.85;48.88
71098;SHT35;58754;47.622;-2.986;2023-03-01T03:10:04;12.84;48.86
71098;SHT35;58754;47.622;-2.986;2023-03-01T03:12:30;12.84;48.85
71098;SHT35;58754;47.622;-2.986;2023-03-01T03:14:56;12.84;48.89
71098;SHT35;58754;47.622;-2.986;2023-03-01T03:17:21;12.84;48.89
71098;SHT35;58754;47.622;-2.986;2023-03-01T03:19:47;12.81;48.89
71098;SHT35;58754;47.622;-2.986;2023-03-01T03:22:13;12.82;48.84
71098;SHT35;58754;47.622;-2.986;2023-03-01T03:24:39;12.81;48.81
71098;SHT35;58754;47.622;-2.986;2023-03-01T03:27:06;12.81;48.84
71098;SHT35;58754;47.622;-2.986;2023-03-01T03:29:32;12.81;48.84
71098;SHT35;58754;47.622;-2.986;2023-03-01T03:31:58;12.82;48.83
71098;SHT35;58754;47.622;-2.986;2023-03-01T03:34:24;12.81;48.82
71098;SHT35;58754;47.622;-2.986;2023-03-01T03:36:54;12.82;48.85
71098;SHT35;58754;47.622;-2.986;2023-03-01T03:39:26;12.82;48.85
71098;SHT35;58754;47.622;-2.986;2023-03-01T03:42:00;12.78;48.80
71098;SHT35;58754;47.622;-2.986;2023-03-01T03:44:26;12.79;48.82
71098;SHT35;58754;47.622;-2.986;2023-03-01T03:46:52;12.77;48.85
71098;SHT35;58754;47.622;-2.986;2023-03-01T03:49:18;12.78;48.80
71098;SHT35;58754;47.622;-2.986;2023-03-01T03:51:45;12.78;48.84
71098;SHT35;58754;47.622;-2.986;2023-03-01T03:54:11;12.77;48.82
71098;SHT35;58754;47.622;-2.986;2023-03-01T03:56:37;12.77;48.80
71098;SHT35;58754;47.622;-2.986;2023-03-01T03:59:03;12.77;48.80
71098;SHT35;58754;47.622;-2.986;2023-03-01T04:01:28;12.75;48.84
71098;SHT35;58754;47.622;-2.986;2023-03-01T04:03:54;12.78;48.82
71098;SHT35;58754;47.622;-2.986;2023-03-01T04:06:20;12.77;48.75
71098;SHT35;58754;47.622;-2.986;2023-03-01T04:08:46;12.79;48.84
71098;SHT35;58754;47.622;-2.986;2023-03-01T04:11:12;12.78;48.78
71098;SHT35;58754;47.622;-2.986;2023-03-01T04:13:54;12.77;48.74
71098;SHT35;58754;47.622;-2.986;2023-03-01T04:16:20;12.78;48.74
71098;SHT35;58754;47.622;-2.986;2023-03-01T04:18:46;12.78;48.75
71098;SHT35;58754;47.622;-2.986;2023-03-01T04:21:12;12.75;48.75
71098;SHT35;58754;47.622;-2.986;2023-03-01T04:23:38;12.75;48.80
71098;SHT35;58754;47.622;-2.986;2023-03-01T04:26:07;12.77;48.72
71098;SHT35;58754;47.622;-2.986;2023-03-01T04:28:33;12.78;48.68
71098;SHT35;58754;47.622;-2.986;2023-03-01T04:31:04;12.75;48.74
71098;SHT35;58754;47.622;-2.986;2023-03-01T04:33:43;12.74;48.73
71098;SHT35;58754;47.622;-2.986;2023-03-01T04:36:10;12.74;48.71
71098;SHT35;58754;47.622;-2.986;2023-03-01T04:38:37;12.75;48.72
71098;SHT35;58754;47.622;-2.986;2023-03-01T04:41:08;12.72;48.70
71098;SHT35;58754;47.622;-2.986;2023-03-01T04:43:35;12.74;48.65
71098;SHT35;58754;47.622;-2.986;2023-03-01T04:46:02;12.72;48.68
71098;SHT35;58754;47.622;-2.986;2023-03-01T04:48:29;12.72;48.65
71098;SHT35;58754;47.622;-2.986;2023-03-01T04:50:55;12.72;48.66
71098;SHT35;58754;47.622;-2.986;2023-03-01T04:53:21;12.72;48.64
71098;SHT35;58754;47.622;-2.986;2023-03-01T04:55:46;12.72;48.65
71098;SHT35;58754;47.622;-2.986;2023-03-01T04:58:12;12.74;48.62
71098;SHT35;58754;47.622;-2.986;2023-03-01T05:00:38;12.72;48.65
71098;SHT35;58754;47.622;-2.986;2023-03-01T05:03:03;12.71;48.64
71098;SHT35;58754;47.622;-2.986;2023-03-01T05:05:37;12.71;48.60
71098;SHT35;58754;47.622;-2.986;2023-03-01T05:08:06;12.71;48.55
71098;SHT35;58754;47.622;-2.986;2023-03-01T05:10:33;12.71;48.57
71098;SHT35;58754;47.622;-2.986;2023-03-01T05:13:01;12.71;48.61
71098;SHT35;58754;47.622;-2.986;2023-03-01T05:15:29;12.69;48.58
71098;SHT35;58754;47.622;-2.986;2023-03-01T05:17:57;12.71;48.62
71098;SHT35;58754;47.622;-2.986;2023-03-01T05:20:29;12.69;48.58
71098;SHT35;58754;47.622;-2.986;2023-03-01T05:22:59;12.68;48.57
71098;SHT35;58754;47.622;-2.986;2023-03-01T05:25:24;12.67;48.53
71098;SHT35;58754;47.622;-2.986;2023-03-01T05:27:50;12.68;48.58
71098;SHT35;58754;47.622;-2.986;2023-03-01T05:30:17;12.67;48.55
71098;SHT35;58754;47.622;-2.986;2023-03-01T05:32:45;12.67;48.58
71098;SHT35;58754;47.622;-2.986;2023-03-01T05:35:14;12.65;48.60
71098;SHT35;58754;47.622;-2.986;2023-03-01T05:37:45;12.67;48.59
71098;SHT35;58754;47.622;-2.986;2023-03-01T05:40:17;12.68;48.57
71098;SHT35;58754;47.622;-2.986;2023-03-01T05:42:48;12.67;48.57
71098;SHT35;58754;47.622;-2.986;2023-03-01T05:45:15;12.67;48.55
71098;SHT35;58754;47.622;-2.986;2023-03-01T05:47:43;12.65;48.55
71098;SHT35;58754;47.622;-2.986;2023-03-01T05:50:24;12.65;48.54
71098;SHT35;58754;47.622;-2.986;2023-03-01T05:52:56;12.62;48.55
71098;SHT35;58754;47.622;-2.986;2023-03-01T05:55:22;12.64;48.53
71098;SHT35;58754;47.622;-2.986;2023-03-01T05:57:48;12.62;48.49
71098;SHT35;58754;47.622;-2.986;2023-03-01T06:00:17;12.62;48.54
71098;SHT35;58754;47.622;-2.986;2023-03-01T06:02:43;12.65;48.50
71098;SHT35;58754;47.622;-2.986;2023-03-01T06:05:11;12.64;48.46
71098;SHT35;58754;47.622;-2.986;2023-03-01T06:07:37;12.64;48.50
71098;SHT35;58754;47.622;-2.986;2023-03-01T06:10:07;12.61;48.49
71098;SHT35;58754;47.622;-2.986;2023-03-01T06:12:35;12.62;48.53
71098;SHT35;58754;47.622;-2.986;2023-03-01T06:15:01;12.61;48.45
71098;SHT35;58754;47.622;-2.986;2023-03-01T06:17:32;12.61;48.49
71098;SHT35;58754;47.622;-2.986;2023-03-01T06:20:08;12.62;48.47
71098;SHT35;58754;47.622;-2.986;2023-03-01T06:22:34;12.58;48.48
71098;SHT35;58754;47.622;-2.986;2023-03-01T06:25:00;12.60;48.47
71098;SHT35;58754;47.622;-2.986;2023-03-01T06:27:25;12.61;48.45
71098;SHT35;58754;47.622;-2.986;2023-03-01T06:29:51;12.60;48.45
71098;SHT35;58754;47.622;-2.986;2023-03-01T06:32:17;12.61;48.47
71098;SHT35;58754;47.622;-2.986;2023-03-01T06:34:42;12.58;48.42
71098;SHT35;58754;47.622;-2.986;2023-03-01T06:37:08;12.58;48.46
71098;SHT35;58754;47.622;-2.986;2023-03-01T06:39:34;12.58;48.47
71098;SHT35;58754;47.622;-2.986;2023-03-01T06:42:00;12.58;48.39
71098;SHT35;58754;47.622;-2.986;2023-03-01T06:44:25;12.60;48.46
71098;SHT35;58754;47.622;-2.986;2023-03-01T06:46:51;12.55;48.41
71098;SHT35;58754;47.622;-2.986;2023-03-01T06:49:17;12.58;48.41
71098;SHT35;58754;47.622;-2.986;2023-03-01T06:51:44;12.55;48.42
71098;SHT35;58754;47.622;-2.986;2023-03-01T06:54:10;12.55;48.41
71098;SHT35;58754;47.622;-2.986;2023-03-01T06:56:35;12.57;48.42
71098;SHT35;58754;47.622;-2.986;2023-03-01T06:59:01;12.57;48.44
71098;SHT35;58754;47.622;-2.986;2023-03-01T07:01:28;12.57;48.47
71098;SHT35;58754;47.622;-2.986;2023-03-01T07:03:54;12.55;48.42
71098;SHT35;58754;47.622;-2.986;2023-03-01T07:06:20;12.54;48.43
71098;SHT35;58754;47.622;-2.986;2023-03-01T07:08:46;12.58;48.39
71098;SHT35;58754;47.622;-2.986;2023-03-01T07:11:12;12.55;48.38
71098;SHT35;58754;47.622;-2.986;2023-03-01T07:13:38;12.53;48.38
71098;SHT35;58754;47.622;-2.986;2023-03-01T07:16:04;12.55;48.34
71098;SHT35;58754;47.622;-2.986;2023-03-01T07:18:30;12.54;48.37
71098;SHT35;58754;47.622;-2.986;2023-03-01T07:20:56;12.54;48.39
71098;SHT35;58754;47.622;-2.986;2023-03-01T07:23:21;12.54;48.35
71098;SHT35;58754;47.622;-2.986;2023-03-01T07:25:54;12.51;48.40
71098;SHT35;58754;47.622;-2.986;2023-03-01T07:28:22;12.53;48.40
71098;SHT35;58754;47.622;-2.986;2023-03-01T07:30:47;12.51;48.35
71098;SHT35;58754;47.622;-2.986;2023-03-01T07:33:13;12.53;48.32
71098;SHT35;58754;47.622;-2.986;2023-03-01T07:35:39;12.53;48.34
71098;SHT35;58754;47.622;-2.986;2023-03-01T07:38:04;12.50;48.31
71098;SHT35;58754;47.622;-2.986;2023-03-01T07:40:30;12.53;48.31
71098;SHT35;58754;47.622;-2.986;2023-03-01T07:42:57;12.53;48.37
71098;SHT35;58754;47.622;-2.986;2023-03-01T07:45:26;12.51;48.33
71098;SHT35;58754;47.622;-2.986;2023-03-01T07:47:52;12.50;48.30
71098;SHT35;58754;47.622;-2.986;2023-03-01T07:50:18;12.53;48.32
71098;SHT35;58754;47.622;-2.986;2023-03-01T07:52:49;12.51;48.31
71098;SHT35;58754;47.622;-2.986;2023-03-01T07:55:15;12.51;48.30
71098;SHT35;58754;47.622;-2.986;2023-03-01T07:57:41;12.51;48.32
71098;SHT35;58754;47.622;-2.986;2023-03-01T08:00:10;12.48;48.35
71098;SHT35;58754;47.622;-2.986;2023-03-01T08:02:36;12.50;48.33
71098;SHT35;58754;47.622;-2.986;2023-03-01T08:05:03;12.47;48.35
71098;SHT35;58754;47.622;-2.986;2023-03-01T08:07:28;12.50;48.36
71098;SHT35;58754;47.622;-2.986;2023-03-01T08:09:54;12.50;48.32
71098;SHT35;58754;47.622;-2.986;2023-03-01T08:12:20;12.50;48.28
71098;SHT35;58754;47.622;-2.986;2023-03-01T08:14:46;12.50;48.27
71098;SHT35;58754;47.622;-2.986;2023-03-01T08:17:13;12.48;48.29
71098;SHT35;58754;47.622;-2.986;2023-03-01T08:19:39;12.50;48.27
71098;SHT35;58754;47.622;-2.986;2023-03-01T08:22:05;12.47;48.30
71098;SHT35;58754;47.622;-2.986;2023-03-01T08:24:31;12.48;48.28
71098;SHT35;58754;47.622;-2.986;2023-03-01T08:26:56;12.48;48.28
71098;SHT35;58754;47.622;-2.986;2023-03-01T08:29:22;12.48;48.30
71098;SHT35;58754;47.622;-2.986;2023-03-01T08:31:50;12.47;48.23
71098;SHT35;58754;47.622;-2.986;2023-03-01T08:34:17;12.47;48.23
71098;SHT35;58754;47.622;-2.986;2023-03-01T08:36:45;12.44;48.24
71098;SHT35;58754;47.622;-2.986;2023-03-01T08:39:14;12.47;48.26
71098;SHT35;58754;47.622;-2.986;2023-03-01T08:41:40;12.47;48.24
71098;SHT35;58754;47.622;-2.986;2023-03-01T08:44:06;12.45;48.22
71098;SHT35;58754;47.622;-2.986;2023-03-01T08:46:35;12.47;48.21
71098;SHT35;58754;47.622;-2.986;2023-03-01T08:49:04;12.43;48.24
71098;SHT35;58754;47.622;-2.986;2023-03-01T08:51:31;12.45;48.19
71098;SHT35;58754;47.622;-2.986;2023-03-01T08:54:20;12.44;48.14
71098;SHT35;58754;47.622;-2.986;2023-03-01T08:56:47;12.43;48.15
71098;SHT35;58754;47.622;-2.986;2023-03-01T08:59:14;12.43;48.16
71098;SHT35;58754;47.622;-2.986;2023-03-01T09:01:41;12.43;48.21
71098;SHT35;58754;47.622;-2.986;2023-03-01T09:04:09;12.43;48.19
71098;SHT35;58754;47.622;-2.986;2023-03-01T09:06:35;12.43;48.14
71098;SHT35;58754;47.622;-2.986;2023-03-01T09:09:03;12.41;48.20
71098;SHT35;58754;47.622;-2.986;2023-03-01T09:11:29;12.44;48.14
71098;SHT35;58754;47.622;-2.986;2023-03-01T09:13:55;12.44;48.19
71098;SHT35;58754;47.622;-2.986;2023-03-01T09:16:22;12.41;48.15
71098;SHT35;58754;47.622;-2.986;2023-03-01T09:18:52;12.43;48.11
71098;SHT35;58754;47.622;-2.986;2023-03-01T09:21:21;12.41;48.10
71098;SHT35;58754;47.622;-2.986;2023-03-01T09:23:48;12.41;48.13
71098;SHT35;58754;47.622;-2.986;2023-03-01T09:26:20;12.41;48.04
71098;SHT35;58754;47.622;-2.986;2023-03-01T09:28:51;12.41;48.08
71098;SHT35;58754;47.622;-2.986;2023-03-01T09:31:18;12.43;48.11
71098;SHT35;58754;47.622;-2.986;2023-03-01T09:33:49;12.40;48.12
71098;SHT35;58754;47.622;-2.986;2023-03-01T09:36:23;12.40;48.11
71098;SHT35;58754;47.622;-2.986;2023-03-01T09:38:50;12.40;48.01
71098;SHT35;58754;47.622;-2.986;2023-03-01T09:46:43;12.38;48.04
71098;SHT35;58754;47.622;-2.986;2023-03-01T09:49:28;12.37;47.97
71098;SHT35;58754;47.622;-2.986;2023-03-01T09:52:47;12.38;47.96
71098;SHT35;58754;47.622;-2.986;2023-03-01T09:54:55;12.38;47.98
71098;SHT35;58754;47.622;-2.986;2023-03-01T10:00:39;12.38;47.88
71098;SHT35;58754;47.622;-2.986;2023-03-01T10:06:21;12.38;47.81
71098;SHT35;58754;47.622;-2.986;2023-03-01T10:09:05;12.38;47.90
71098;SHT35;58754;47.622;-2.986;2023-03-01T10:11:41;12.37;47.82
71098;SHT35;58754;47.622;-2.986;2023-03-01T10:14:38;12.40;47.84
71098;SHT35;58754;47.622;-2.986;2023-03-01T10:19:46;12.36;47.77
71098;SHT35;58754;47.622;-2.986;2023-03-01T10:22:25;12.37;47.88
71098;SHT35;58754;47.622;-2.986;2023-03-01T10:24:54;12.37;47.85
71098;SHT35;58754;47.622;-2.986;2023-03-01T10:32:49;12.34;47.78
71098;SHT35;58754;47.622;-2.986;2023-03-01T10:40:27;12.36;47.62
71098;SHT35;58754;47.622;-2.986;2023-03-01T10:42:57;12.37;47.67
71098;SHT35;58754;47.622;-2.986;2023-03-01T10:48:19;12.36;47.67
71098;SHT35;58754;47.622;-2.986;2023-03-01T10:51:04;12.34;47.65
71098;SHT35;58754;47.622;-2.986;2023-03-01T10:53:36;12.38;47.63
71098;SHT35;58754;47.622;-2.986;2023-03-01T10:56:06;12.37;47.61
71098;SHT35;58754;47.622;-2.986;2023-03-01T10:58:34;12.34;47.65
71098;SHT35;58754;47.622;-2.986;2023-03-01T11:03:41;12.36;47.62
71098;SHT35;58754;47.622;-2.986;2023-03-01T11:08:44;12.36;47.62
71098;SHT35;58754;47.622;-2.986;2023-03-01T11:11:34;12.34;47.54
71098;SHT35;58754;47.622;-2.986;2023-03-01T11:14:01;12.36;47.51
71098;SHT35;58754;47.622;-2.986;2023-03-01T11:16:34;12.36;47.50
71098;SHT35;58754;47.622;-2.986;2023-03-01T11:21:47;12.36;47.49
71098;SHT35;58754;47.622;-2.986;2023-03-01T11:24:17;12.34;47.47
71098;SHT35;58754;47.622;-2.986;2023-03-01T11:26:50;12.37;47.53
71098;SHT35;58754;47.622;-2.986;2023-03-01T11:29:38;12.33;47.51
71098;SHT35;58754;47.622;-2.986;2023-03-01T11:32:09;12.36;47.49
71098;SHT35;58754;47.622;-2.986;2023-03-01T11:40:26;12.34;47.49
71098;SHT35;58754;47.622;-2.986;2023-03-01T11:42:59;12.36;47.44
71098;SHT35;58754;47.622;-2.986;2023-03-01T11:46:25;12.33;47.39
71098;SHT35;58754;47.622;-2.986;2023-03-01T11:51:26;12.36;47.36
71098;SHT35;58754;47.622;-2.986;2023-03-01T11:56:34;12.36;47.29
71098;SHT35;58754;47.622;-2.986;2023-03-01T12:04:54;12.36;47.30
71098;SHT35;58754;47.622;-2.986;2023-03-01T12:10:28;12.33;47.26
71098;SHT35;58754;47.622;-2.986;2023-03-01T12:13:06;12.33;47.26
71098;SHT35;58754;47.622;-2.986;2023-03-01T12:15:39;12.32;47.33
71098;SHT35;58754;47.622;-2.986;2023-03-01T12:21:25;12.33;47.24
71098;SHT35;58754;47.622;-2.986;2023-03-01T12:24:33;12.34;47.24
71098;SHT35;58754;47.622;-2.986;2023-03-01T12:27:30;12.32;47.24
71098;SHT35;58754;47.622;-2.986;2023-03-01T12:30:39;12.34;47.24
71098;SHT35;58754;47.622;-2.986;2023-03-01T12:44:40;12.33;47.20
71098;SHT35;58754;47.622;-2.986;2023-03-01T12:47:21;12.32;47.21
71098;SHT35;58754;47.622;-2.986;2023-03-01T12:50:21;12.32;47.20
71098;SHT35;58754;47.622;-2.986;2023-03-01T12:52:53;12.33;47.17
71098;SHT35;58754;47.622;-2.986;2023-03-01T12:55:30;12.33;47.12
71098;SHT35;58754;47.622;-2.986;2023-03-01T13:06:24;12.36;47.20
71098;SHT35;58754;47.622;-2.986;2023-03-01T13:23:26;12.34;47.19
71098;SHT35;58754;47.622;-2.986;2023-03-01T13:31:00;12.36;47.19
71098;SHT35;58754;47.622;-2.986;2023-03-01T13:35:52;12.36;47.11
71098;SHT35;58754;47.622;-2.986;2023-03-01T13:38:48;12.34;47.15
71098;SHT35;58754;47.622;-2.986;2023-03-01T13:49:57;12.37;47.06
71098;SHT35;58754;47.622;-2.986;2023-03-01T13:52:39;12.36;47.16
71098;SHT35;58754;47.622;-2.986;2023-03-01T13:58:03;12.38;47.12
71098;SHT35;58754;47.622;-2.986;2023-03-01T14:00:37;12.36;47.12
71098;SHT35;58754;47.622;-2.986;2023-03-01T14:03:18;12.40;47.14
71098;SHT35;58754;47.622;-2.986;2023-03-01T14:06:06;12.37;47.10
71098;SHT35;58754;47.622;-2.986;2023-03-01T14:08:32;12.36;47.14
71098;SHT35;58754;47.622;-2.986;2023-03-01T14:14:48;12.37;47.18
71098;SHT35;58754;47.622;-2.986;2023-03-01T14:17:55;12.38;47.15
71098;SHT35;58754;47.622;-2.986;2023-03-01T14:20:26;12.38;47.13
71098;SHT35;58754;47.622;-2.986;2023-03-01T14:22:54;12.38;47.12
71098;SHT35;58754;47.622;-2.986;2023-03-01T14:25:23;12.40;47.16
71098;SHT35;58754;47.622;-2.986;2023-03-01T14:27:57;12.40;47.14
71098;SHT35;58754;47.622;-2.986;2023-03-01T14:30:31;12.40;47.14
71098;SHT35;58754;47.622;-2.986;2023-03-01T14:33:03;12.38;47.12
71098;SHT35;58754;47.622;-2.986;2023-03-01T14:35:34;12.38;47.13
71098;SHT35;58754;47.622;-2.986;2023-03-01T14:38:00;12.40;47.10
71098;SHT35;58754;47.622;-2.986;2023-03-01T14:42:52;12.41;47.12
71098;SHT35;58754;47.622;-2.986;2023-03-01T14:45:19;12.40;47.08
71098;SHT35;58754;47.622;-2.986;2023-03-01T14:47:45;12.41;47.10
71098;SHT35;58754;47.622;-2.986;2023-03-01T14:50:31;12.43;47.11
71098;SHT35;58754;47.622;-2.986;2023-03-01T14:53:05;12.41;47.20
71098;SHT35;58754;47.622;-2.986;2023-03-01T14:55:35;12.41;47.11
71098;SHT35;58754;47.622;-2.986;2023-03-01T14:58:09;12.43;47.13
71098;SHT35;58754;47.622;-2.986;2023-03-01T15:00:37;12.44;47.16
71098;SHT35;58754;47.622;-2.986;2023-03-01T15:03:12;12.43;47.13
71098;SHT35;58754;47.622;-2.986;2023-03-01T15:05:41;12.41;47.17
71098;SHT35;58754;47.622;-2.986;2023-03-01T15:08:07;12.43;47.16
71098;SHT35;58754;47.622;-2.986;2023-03-01T15:13:31;12.43;47.15
71098;SHT35;58754;47.622;-2.986;2023-03-01T15:16:12;12.43;47.21
71098;SHT35;58754;47.622;-2.986;2023-03-01T15:19:05;12.41;47.21
71098;SHT35;58754;47.622;-2.986;2023-03-01T15:21:37;12.45;47.20
71098;SHT35;58754;47.622;-2.986;2023-03-01T15:26:56;12.41;47.23
71098;SHT35;58754;47.622;-2.986;2023-03-01T15:29:30;12.43;47.19
71098;SHT35;58754;47.622;-2.986;2023-03-01T15:32:05;12.44;47.19
71098;SHT35;58754;47.622;-2.986;2023-03-01T15:34:33;12.44;47.29
71098;SHT35;58754;47.622;-2.986;2023-03-01T15:37:01;12.45;47.27
71098;SHT35;58754;47.622;-2.986;2023-03-01T15:39:32;12.47;47.28
71098;SHT35;58754;47.622;-2.986;2023-03-01T15:42:40;12.47;47.28
71098;SHT35;58754;47.622;-2.986;2023-03-01T15:47:48;12.47;47.32
71098;SHT35;58754;47.622;-2.986;2023-03-01T15:50:34;12.44;47.33
71098;SHT35;58754;47.622;-2.986;2023-03-01T15:53:05;12.45;47.33
71098;SHT35;58754;47.622;-2.986;2023-03-01T15:55:33;12.45;47.29
71098;SHT35;58754;47.622;-2.986;2023-03-01T15:58:12;12.48;47.35
71098;SHT35;58754;47.622;-2.986;2023-03-01T16:00:38;12.48;47.34
71098;SHT35;58754;47.622;-2.986;2023-03-01T16:03:05;12.48;47.32
71098;SHT35;58754;47.622;-2.986;2023-03-01T16:05:33;12.47;47.34
71098;SHT35;58754;47.622;-2.986;2023-03-01T16:08:00;12.47;47.35
71098;SHT35;58754;47.622;-2.986;2023-03-01T16:10:26;12.48;47.34
71098;SHT35;58754;47.622;-2.986;2023-03-01T16:12:52;12.48;47.35
71098;SHT35;58754;47.622;-2.986;2023-03-01T16:15:24;12.47;47.40
71098;SHT35;58754;47.622;-2.986;2023-03-01T16:17:51;12.48;47.38
71098;SHT35;58754;47.622;-2.986;2023-03-01T16:20:17;12.47;47.38
71098;SHT35;58754;47.622;-2.986;2023-03-01T16:22:43;12.48;47.43
71098;SHT35;58754;47.622;-2.986;2023-03-01T16:25:11;12.48;47.37
71098;SHT35;58754;47.622;-2.986;2023-03-01T16:27:37;12.48;47.38
71098;SHT35;58754;47.622;-2.986;2023-03-01T16:30:05;12.47;47.43
71098;SHT35;58754;47.622;-2.986;2023-03-01T16:32:37;12.48;47.43
71098;SHT35;58754;47.622;-2.986;2023-03-01T16:35:04;12.50;47.47
71098;SHT35;58754;47.622;-2.986;2023-03-01T16:37:32;12.50;47.47
71098;SHT35;58754;47.622;-2.986;2023-03-01T16:39:58;12.48;47.43
71098;SHT35;58754;47.622;-2.986;2023-03-01T16:42:24;12.50;47.48
71098;SHT35;58754;47.622;-2.986;2023-03-01T16:44:55;12.48;47.48
71098;SHT35;58754;47.622;-2.986;2023-03-01T16:47:21;12.50;47.48
71098;SHT35;58754;47.622;-2.986;2023-03-01T16:49:46;12.51;47.51
71098;SHT35;58754;47.622;-2.986;2023-03-01T16:52:12;12.50;47.54
71098;SHT35;58754;47.622;-2.986;2023-03-01T16:54:38;12.51;47.50
71098;SHT35;58754;47.622;-2.986;2023-03-01T16:57:04;12.48;47.53
71098;SHT35;58754;47.622;-2.986;2023-03-01T16:59:30;12.51;47.52
71098;SHT35;58754;47.622;-2.986;2023-03-01T17:01:55;12.50;47.51
71098;SHT35;58754;47.622;-2.986;2023-03-01T17:04:21;12.51;47.51
71098;SHT35;58754;47.622;-2.986;2023-03-01T17:06:47;12.53;47.56
71098;SHT35;58754;47.622;-2.986;2023-03-01T17:09:14;12.50;47.56
71098;SHT35;58754;47.622;-2.986;2023-03-01T17:11:41;12.51;47.57
71098;SHT35;58754;47.622;-2.986;2023-03-01T17:14:08;12.50;47.54
71098;SHT35;58754;47.622;-2.986;2023-03-01T17:16:34;12.51;47.56
71098;SHT35;58754;47.622;-2.986;2023-03-01T17:19:00;12.51;47.54
71098;SHT35;58754;47.622;-2.986;2023-03-01T17:21:26;12.51;47.53
71098;SHT35;58754;47.622;-2.986;2023-03-01T17:23:55;12.51;47.62
71098;SHT35;58754;47.622;-2.986;2023-03-01T17:26:21;12.53;47.60
71098;SHT35;58754;47.622;-2.986;2023-03-01T17:28:47;12.51;47.54
71098;SHT35;58754;47.622;-2.986;2023-03-01T17:31:17;12.53;47.57
71098;SHT35;58754;47.622;-2.986;2023-03-01T17:33:44;12.53;47.59
71098;SHT35;58754;47.622;-2.986;2023-03-01T17:36:09;12.51;47.60
71098;SHT35;58754;47.622;-2.986;2023-03-01T17:38:35;12.53;47.62
71098;SHT35;58754;47.622;-2.986;2023-03-01T17:41:02;12.53;47.61
71098;SHT35;58754;47.622;-2.986;2023-03-01T17:43:29;12.53;47.61
71098;SHT35;58754;47.622;-2.986;2023-03-01T17:45:55;12.51;47.64
71098;SHT35;58754;47.622;-2.986;2023-03-01T17:48:22;12.53;47.58
71098;SHT35;58754;47.622;-2.986;2023-03-01T17:50:48;12.54;47.62
71098;SHT35;58754;47.622;-2.986;2023-03-01T17:53:14;12.53;47.65